This is the latest recevied weather packets stored in our database for station/object GW1573. If no packets are shown the sender has not sent any weather packets the latest 10 day(s).
| Time | Temp. | Humidity | Pressure | Rain* | Wind** | Luminosity | Snow |
|---|---|---|---|---|---|---|---|
| 1777727567 | 6.67° C | 74% | 1017.9 hPa | 0 mm | - | - | - |
| 1777726834 | 6.11° C | 77% | 1017.6 hPa | 0 mm | - | - | - |
| 1777723604 | 2.22° C | 99% | 1017.6 hPa | 0 mm | - | - | - |
| 1777722891 | 1.67° C | 99% | 1017.2 hPa | 0 mm | - | - | - |
| 1777722152 | 1.11° C | 99% | 1017.6 hPa | 0 mm | - | - | - |
| 1777717127 | 0° C | 99% | 1017.6 hPa | 0 mm | - | - | - |
| 1777716391 | 0° C | 99% | 1017.6 hPa | 0 mm | - | - | - |
| 1777705944 | 1.11° C | 99% | 1016.9 hPa | 0 mm | - | - | - |
| 1777701647 | 3.33° C | 99% | 1017.9 hPa | 0 mm | - | - | - |
| 1777701288 | 3.33° C | 99% | 1017.6 hPa | 0 mm | - | - | - |
| 1777699821 | 3.33° C | 99% | 1017.9 hPa | 0 mm | - | - | - |
| 1777698388 | 2.22° C | 99% | 1017.9 hPa | 0 mm | - | - | - |
| 1777695875 | 2.22° C | 99% | 1017.9 hPa | 0 mm | - | - | - |
| 1777691175 | 2.78° C | 96% | 1017.9 hPa | 0.25 mm | - | - | - |
| 1777681112 | 8.33° C | 68% | 1015.9 hPa | 0.25 mm | - | - | - |
| 1777680766 | 8.33° C | 68% | 1015.5 hPa | 0.25 mm | - | - | - |
| 1777679693 | 8.89° C | 66% | 1015.2 hPa | 0.25 mm | - | - | - |
| 1777678973 | 9.44° C | 63% | 1015.2 hPa | 0.25 mm | - | - | - |
| 1777674654 | 11.11° C | 62% | 1014.2 hPa | 0.25 mm | - | - | - |
| 1777671759 | 11.67° C | 71% | 1013.8 hPa | 0.25 mm | - | - | - |
| 1777661322 | 12.22° C | 73% | 1013.5 hPa | 0.25 mm | - | - | - |
| 1777660943 | 12.22° C | 81% | 1013.5 hPa | 0.25 mm | - | - | - |
| 1777658814 | 12.78° C | 68% | 1012.8 hPa | 0 mm | - | - | - |
| 1777653757 | 14.44° C | 55% | 1012.8 hPa | 0 mm | - | - | - |
| 1777646530 | 12.22° C | 68% | 1013.5 hPa | 0 mm | - | - | - |
* Rain since midnight (hover to see other rain measurements)
** Current wind speed in m/s (hover to see current wind gust speed)